This is the latest recevied weather packets stored in our database for station/object OK1PHM-12. If no packets are shown the sender has not sent any weather packets the latest 10 day(s).
| Time | Temp. | Humidity | Pressure | Rain* | Wind** | Luminosity | Snow |
|---|---|---|---|---|---|---|---|
| 1778057867 | 21.67° C | 54% | 1009.3 hPa | - | - | - | - |
| 1778056967 | 21.67° C | 52% | 1009.3 hPa | - | - | - | - |
| 1778056066 | 20.56° C | 53% | 1009.2 hPa | - | - | - | - |
| 1778055165 | 20.56° C | 56% | 1009.2 hPa | - | - | - | - |
| 1778054264 | 21.11° C | 58% | 1009.3 hPa | - | - | - | - |
| 1778053363 | 20° C | 60% | 1009.4 hPa | - | - | - | - |
| 1778052462 | 18.89° C | 61% | 1009.4 hPa | - | - | - | - |
| 1778051561 | 18.89° C | 62% | 1009.5 hPa | - | - | - | - |
| 1778050660 | 18.89° C | 66% | 1009.6 hPa | - | - | - | - |
| 1778049760 | 18.89° C | 65% | 1009.3 hPa | - | - | - | - |
| 1778048859 | 18.89° C | 66% | 1009.3 hPa | - | - | - | - |
| 1778047958 | 18.89° C | 65% | 1009.2 hPa | - | - | - | - |
| 1778047057 | 18.89° C | 65% | 1009.3 hPa | - | - | - | - |
| 1778046156 | 18.33° C | 68% | 1009.1 hPa | - | - | - | - |
| 1778045255 | 18.33° C | 69% | 1009.2 hPa | - | - | - | - |
| 1778044355 | 18.33° C | 71% | 1009 hPa | - | - | - | - |
| 1778043454 | 18.33° C | 73% | 1009 hPa | - | - | - | - |
| 1778042553 | 16.11° C | 79% | 1009 hPa | - | - | - | - |
| 1778041652 | 14.44° C | 85% | 1009 hPa | - | - | - | - |
| 1778040751 | 16.11° C | 82% | 1008.8 hPa | - | - | - | - |
| 1778039851 | 14.44° C | 93% | 1008.5 hPa | - | - | - | - |
| 1778038950 | 12.78° C | 94% | 1008.4 hPa | - | - | - | - |
| 1778038049 | 13.33° C | 92% | 1008.3 hPa | - | - | - | - |
| 1778037148 | 13.89° C | 89% | 1008.4 hPa | - | - | - | - |
| 1778036247 | 14.44° C | 89% | 1008.5 hPa | - | - | - | - |
* Rain since midnight (hover to see other rain measurements)
** Current wind speed in m/s (hover to see current wind gust speed)